17:35
Airports
Links
Donate
Help keep this website running!
PayPal
Bitcoin
METAR
CYMT 191727Z AUTO 24012G20KT 6SM -SN BKN017 OVC035 M02/M05 A2995 RMK SLP172
Current Weather Conditions at CYMT
MVFR 17:27:00 19-02-18
Automated station, no observer
Altimeter:29.95 hg
Temp:-2.0°c 28°f
Dew point:-5.0°c 23°f
Wind:12 knots, 13.8 mph, 6 m/s, from 240°
Visibility:6.0 statute miles
3500(OVC) Overcast
1700(BKN) Broken
Past METAR reports
MVFR 17:15:00 19-02-18
Automated station, no observer
Altimeter:29.95 hg
Temp:-2.0°c 28°f
Dew point:-4.0°c 25°f
Wind:12 knots, 13.8 mph, 6 m/s, from 230°
Visibility:3.0 statute miles
2800(OVC) Overcast
2000(BKN) Broken
1500(BKN) Broken
CYMT 191715Z AUTO 23012G17KT 3SM -SN BKN015 BKN020 OVC028 M02/M04 A2995 RMK SLP172
IFR 17:00:00 19-02-18
Automated station, no observer
Altimeter:29.95 hg
Temp:-2.0°c 28°f
Dew point:-4.0°c 25°f
Wind:11 knots, 12.7 mph, 6 m/s, from 220°
Visibility:2.0 statute miles
2800(OVC) Overcast
2000(BKN) Broken
1400(SCT) Scattered
CYMT 191700Z AUTO 22011G16KT 2SM -SN SCT014 BKN020 OVC028 M02/M04 A2995 RMK VIS VRB 1 1/4-3 SLP173
IFR 16:20:00 19-02-18
Automated station, no observer
Altimeter:29.96 hg
Temp:-3.0°c 27°f
Dew point:-5.0°c 23°f
Wind:11 knots, 12.7 mph, 6 m/s, from 220°
Visibility:2.5 statute miles
2900(OVC) Overcast
2400(BKN) Broken
1600(FEW) A few
CYMT 191620Z AUTO 22011G16KT 2 1/2SM -SN FEW016 BKN024 OVC029 M03/M05 A2996 RMK SLP174
IFR 16:19:00 19-02-18
Automated station, no observer
Altimeter:29.96 hg
Temp:-3.0°c 27°f
Dew point:-5.0°c 23°f
Wind:11 knots, 12.7 mph, 6 m/s, from 220°
Visibility:2.5 statute miles
2700(OVC) Overcast
2000(SCT) Scattered
CYMT 191619Z AUTO 22011G17KT 2 1/2SM -SN SCT020 OVC027 M03/M05 A2996 RMK SLP174
IFR 16:17:00 19-02-18
Automated station, no observer
Altimeter:29.95 hg
Temp:-3.0°c 27°f
Dew point:-5.0°c 23°f
Wind:10 knots, 11.5 mph, 5 m/s, from 220°
Visibility:2.25 statute miles
2900(OVC) Overcast
2400(BKN) Broken
CYMT 191617Z AUTO 22010G17KT 2 1/4SM -SN BKN024 OVC029 M03/M05 A2995 RMK SLP173
IFR 16:16:00 19-02-18
Automated station, no observer
Altimeter:29.96 hg
Temp:-3.0°c 27°f
Dew point:-5.0°c 23°f
Wind:9 knots, 10.4 mph, 5 m/s, from 220°
Visibility:2.25 statute miles
2700(OVC) Overcast
2100(SCT) Scattered
CYMT 191616Z AUTO 22009G17KT 2 1/4SM -SN SCT021 OVC027 M03/M05 A2996 RMK SLP174
TAF
TAF CYMT 191238Z 1913/2001 19008KT P6SM -SN SCT015 OVC040 TEMPO 1913/1920 21/2SM -SN OVC015 BECMG 1914/1916 22015G25KT FM192000 34012KT P6SM -SN OVC025 TEMPO 1920/2001 3SM -SN OVC015 RMK FCST BASED ON AUTO OBS. NXT FCST BY 191800Z
Forecast at CYMT
13:00 19-02-18 to 14:00 19-02-18
-SN
Wind:8 Knots from 190°
Visibility:6.21 statute miles
1500SCT Scattered
4000OVC Overcast
TEMPO 13:00 19-02-18 to 20:00 19-02-18
-SN
Visibility:2.5 statute miles
1500OVC Overcast
BECMG 14:00 19-02-18 to 20:00 19-02-18
-SN
Wind:15 Knots from 220°
Visibility:6.21 statute miles
1500SCT Scattered
4000OVC Overcast
TEMPO 20:00 19-02-18 to 01:00 20-02-18
-SN
Visibility:3.0 statute miles
1500OVC Overcast
FM 20:00 19-02-18 to 01:00 20-02-18
-SN
Wind:12 Knots from 340°
Visibility:6.21 statute miles
2500OVC Overcast